sensor_id;sensor_type;location;lat;lon;timestamp;P1;durP1;ratioP1;P2;durP2;ratioP2
31782;SDS011;18351;47.560;9.708;2023-11-22T00:00:22;15.48;;;10.50;;
31782;SDS011;18351;47.560;9.708;2023-11-22T00:02:48;15.32;;;11.38;;
31782;SDS011;18351;47.560;9.708;2023-11-22T00:05:13;16.00;;;10.85;;
31782;SDS011;18351;47.560;9.708;2023-11-22T00:07:39;14.63;;;10.40;;
31782;SDS011;18351;47.560;9.708;2023-11-22T00:10:05;13.27;;;10.25;;
31782;SDS011;18351;47.560;9.708;2023-11-22T00:12:31;13.10;;;10.45;;
31782;SDS011;18351;47.560;9.708;2023-11-22T00:15:02;11.27;;;9.23;;
31782;SDS011;18351;47.560;9.708;2023-11-22T00:17:30;23.17;;;10.18;;
31782;SDS011;18351;47.560;9.708;2023-11-22T00:19:55;9.90;;;8.23;;
31782;SDS011;18351;47.560;9.708;2023-11-22T00:22:21;11.95;;;10.15;;
31782;SDS011;18351;47.560;9.708;2023-11-22T00:24:46;15.07;;;9.32;;
31782;SDS011;18351;47.560;9.708;2023-11-22T00:27:15;11.98;;;9.43;;
31782;SDS011;18351;47.560;9.708;2023-11-22T00:29:41;18.08;;;9.68;;
31782;SDS011;18351;47.560;9.708;2023-11-22T00:32:06;13.43;;;10.43;;
31782;SDS011;18351;47.560;9.708;2023-11-22T00:34:34;14.48;;;9.40;;
31782;SDS011;18351;47.560;9.708;2023-11-22T00:37:00;14.10;;;10.38;;
31782;SDS011;18351;47.560;9.708;2023-11-22T00:39:26;14.65;;;10.45;;
31782;SDS011;18351;47.560;9.708;2023-11-22T00:41:51;12.25;;;9.55;;
31782;SDS011;18351;47.560;9.708;2023-11-22T00:44:17;12.10;;;9.25;;
31782;SDS011;18351;47.560;9.708;2023-11-22T00:46:43;15.23;;;9.32;;
31782;SDS011;18351;47.560;9.708;2023-11-22T00:49:10;11.82;;;9.70;;
31782;SDS011;18351;47.560;9.708;2023-11-22T00:51:36;11.80;;;9.55;;
31782;SDS011;18351;47.560;9.708;2023-11-22T00:54:01;13.32;;;9.68;;
31782;SDS011;18351;47.560;9.708;2023-11-22T00:56:27;16.55;;;11.95;;
31782;SDS011;18351;47.560;9.708;2023-11-22T00:58:53;12.88;;;10.43;;
31782;SDS011;18351;47.560;9.708;2023-11-22T01:01:21;13.00;;;10.45;;
31782;SDS011;18351;47.560;9.708;2023-11-22T01:03:47;15.18;;;11.13;;
31782;SDS011;18351;47.560;9.708;2023-11-22T01:06:13;14.23;;;10.50;;
31782;SDS011;18351;47.560;9.708;2023-11-22T01:08:39;14.90;;;11.35;;
31782;SDS011;18351;47.560;9.708;2023-11-22T01:11:05;13.85;;;10.73;;
31782;SDS011;18351;47.560;9.708;2023-11-22T01:13:31;17.35;;;10.50;;
31782;SDS011;18351;47.560;9.708;2023-11-22T01:15:58;14.30;;;10.80;;
31782;SDS011;18351;47.560;9.708;2023-11-22T01:18:23;15.45;;;10.63;;
31782;SDS011;18351;47.560;9.708;2023-11-22T01:20:49;17.45;;;11.50;;
31782;SDS011;18351;47.560;9.708;2023-11-22T01:23:15;15.40;;;10.75;;
31782;SDS011;18351;47.560;9.708;2023-11-22T01:25:41;14.93;;;10.68;;
31782;SDS011;18351;47.560;9.708;2023-11-22T01:28:06;14.65;;;11.02;;
31782;SDS011;18351;47.560;9.708;2023-11-22T01:30:32;18.55;;;10.35;;
31782;SDS011;18351;47.560;9.708;2023-11-22T01:32:58;14.35;;;10.40;;
31782;SDS011;18351;47.560;9.708;2023-11-22T01:35:24;15.48;;;11.95;;
31782;SDS011;18351;47.560;9.708;2023-11-22T01:37:49;15.52;;;10.95;;
31782;SDS011;18351;47.560;9.708;2023-11-22T01:40:15;17.67;;;12.40;;
31782;SDS011;18351;47.560;9.708;2023-11-22T01:42:41;16.83;;;11.55;;
31782;SDS011;18351;47.560;9.708;2023-11-22T01:45:07;18.48;;;12.20;;
31782;SDS011;18351;47.560;9.708;2023-11-22T01:47:34;17.63;;;12.15;;
31782;SDS011;18351;47.560;9.708;2023-11-22T01:50:00;19.05;;;12.90;;
31782;SDS011;18351;47.560;9.708;2023-11-22T01:52:26;19.77;;;13.45;;
31782;SDS011;18351;47.560;9.708;2023-11-22T01:54:52;22.77;;;13.55;;
31782;SDS011;18351;47.560;9.708;2023-11-22T01:57:18;19.23;;;13.25;;
31782;SDS011;18351;47.560;9.708;2023-11-22T01:59:45;20.40;;;12.77;;
31782;SDS011;18351;47.560;9.708;2023-11-22T02:02:12;22.50;;;13.82;;
31782;SDS011;18351;47.560;9.708;2023-11-22T02:04:38;21.02;;;13.65;;
31782;SDS011;18351;47.560;9.708;2023-11-22T02:07:04;27.05;;;14.88;;
31782;SDS011;18351;47.560;9.708;2023-11-22T02:09:30;19.88;;;13.60;;
31782;SDS011;18351;47.560;9.708;2023-11-22T02:11:55;22.90;;;15.30;;
31782;SDS011;18351;47.560;9.708;2023-11-22T02:14:21;26.30;;;16.73;;
31782;SDS011;18351;47.560;9.708;2023-11-22T02:16:47;29.15;;;17.15;;
31782;SDS011;18351;47.560;9.708;2023-11-22T02:19:16;29.65;;;17.38;;
31782;SDS011;18351;47.560;9.708;2023-11-22T02:21:42;29.25;;;17.80;;
31782;SDS011;18351;47.560;9.708;2023-11-22T02:24:09;22.83;;;14.50;;
31782;SDS011;18351;47.560;9.708;2023-11-22T02:26:35;17.30;;;11.75;;
31782;SDS011;18351;47.560;9.708;2023-11-22T02:29:01;13.45;;;9.30;;
31782;SDS011;18351;47.560;9.708;2023-11-22T02:31:29;10.45;;;7.93;;
31782;SDS011;18351;47.560;9.708;2023-11-22T02:33:54;12.57;;;8.02;;
31782;SDS011;18351;47.560;9.708;2023-11-22T02:36:20;14.25;;;8.55;;
31782;SDS011;18351;47.560;9.708;2023-11-22T02:38:47;14.30;;;9.18;;
31782;SDS011;18351;47.560;9.708;2023-11-22T02:41:12;12.57;;;8.27;;
31782;SDS011;18351;47.560;9.708;2023-11-22T02:43:38;14.90;;;9.45;;
31782;SDS011;18351;47.560;9.708;2023-11-22T02:46:04;11.88;;;8.18;;
31782;SDS011;18351;47.560;9.708;2023-11-22T02:48:30;15.05;;;8.70;;
31782;SDS011;18351;47.560;9.708;2023-11-22T02:50:55;14.68;;;8.65;;
31782;SDS011;18351;47.560;9.708;2023-11-22T02:53:21;13.07;;;8.65;;
31782;SDS011;18351;47.560;9.708;2023-11-22T02:55:47;10.48;;;7.10;;
31782;SDS011;18351;47.560;9.708;2023-11-22T02:58:12;11.60;;;7.13;;
31782;SDS011;18351;47.560;9.708;2023-11-22T03:00:41;9.85;;;7.35;;
31782;SDS011;18351;47.560;9.708;2023-11-22T03:03:06;10.50;;;8.00;;
31782;SDS011;18351;47.560;9.708;2023-11-22T03:05:35;11.48;;;7.68;;
31782;SDS011;18351;47.560;9.708;2023-11-22T03:08:04;11.38;;;7.43;;
31782;SDS011;18351;47.560;9.708;2023-11-22T03:10:32;11.73;;;8.25;;
31782;SDS011;18351;47.560;9.708;2023-11-22T03:12:58;13.60;;;8.45;;
31782;SDS011;18351;47.560;9.708;2023-11-22T03:15:23;14.25;;;8.13;;
31782;SDS011;18351;47.560;9.708;2023-11-22T03:17:49;10.25;;;7.45;;
31782;SDS011;18351;47.560;9.708;2023-11-22T03:20:14;13.57;;;7.45;;
31782;SDS011;18351;47.560;9.708;2023-11-22T03:22:41;14.30;;;8.30;;
31782;SDS011;18351;47.560;9.708;2023-11-22T03:25:08;11.27;;;7.57;;
31782;SDS011;18351;47.560;9.708;2023-11-22T03:27:35;12.73;;;7.10;;
31782;SDS011;18351;47.560;9.708;2023-11-22T03:30:01;9.98;;;7.53;;
31782;SDS011;18351;47.560;9.708;2023-11-22T03:32:26;12.38;;;7.53;;
31782;SDS011;18351;47.560;9.708;2023-11-22T03:34:54;11.07;;;8.25;;
31782;SDS011;18351;47.560;9.708;2023-11-22T03:37:19;14.23;;;9.10;;
31782;SDS011;18351;47.560;9.708;2023-11-22T03:39:45;12.07;;;8.50;;
31782;SDS011;18351;47.560;9.708;2023-11-22T03:42:13;12.43;;;8.23;;
31782;SDS011;18351;47.560;9.708;2023-11-22T03:44:41;11.25;;;8.02;;
31782;SDS011;18351;47.560;9.708;2023-11-22T03:47:06;11.80;;;7.68;;
31782;SDS011;18351;47.560;9.708;2023-11-22T03:49:32;10.10;;;8.10;;
31782;SDS011;18351;47.560;9.708;2023-11-22T03:51:57;14.38;;;8.52;;
31782;SDS011;18351;47.560;9.708;2023-11-22T03:54:23;11.27;;;8.23;;
31782;SDS011;18351;47.560;9.708;2023-11-22T03:56:48;11.43;;;7.97;;
31782;SDS011;18351;47.560;9.708;2023-11-22T03:59:14;14.23;;;8.82;;
31782;SDS011;18351;47.560;9.708;2023-11-22T04:01:40;13.00;;;8.90;;
31782;SDS011;18351;47.560;9.708;2023-11-22T04:04:05;11.27;;;8.35;;
31782;SDS011;18351;47.560;9.708;2023-11-22T04:06:31;12.95;;;9.10;;
31782;SDS011;18351;47.560;9.708;2023-11-22T04:08:58;16.02;;;10.20;;
31782;SDS011;18351;47.560;9.708;2023-11-22T04:11:24;14.57;;;9.75;;
31782;SDS011;18351;47.560;9.708;2023-11-22T04:13:49;14.10;;;9.57;;
31782;SDS011;18351;47.560;9.708;2023-11-22T04:16:15;15.32;;;10.23;;
31782;SDS011;18351;47.560;9.708;2023-11-22T04:18:42;16.58;;;11.30;;
31782;SDS011;18351;47.560;9.708;2023-11-22T04:21:08;17.98;;;11.07;;
31782;SDS011;18351;47.560;9.708;2023-11-22T04:23:34;16.15;;;10.95;;
31782;SDS011;18351;47.560;9.708;2023-11-22T04:26:00;14.65;;;10.02;;
31782;SDS011;18351;47.560;9.708;2023-11-22T04:28:26;17.88;;;11.63;;
31782;SDS011;18351;47.560;9.708;2023-11-22T04:30:53;20.25;;;13.20;;
31782;SDS011;18351;47.560;9.708;2023-11-22T04:33:18;18.55;;;12.90;;
31782;SDS011;18351;47.560;9.708;2023-11-22T04:35:45;20.67;;;13.77;;
31782;SDS011;18351;47.560;9.708;2023-11-22T04:38:11;21.50;;;13.35;;
31782;SDS011;18351;47.560;9.708;2023-11-22T04:40:37;17.83;;;12.40;;
31782;SDS011;18351;47.560;9.708;2023-11-22T04:43:02;19.95;;;12.98;;
31782;SDS011;18351;47.560;9.708;2023-11-22T04:45:28;20.95;;;13.95;;
31782;SDS011;18351;47.560;9.708;2023-11-22T04:47:53;25.92;;;14.40;;
31782;SDS011;18351;47.560;9.708;2023-11-22T04:50:22;24.90;;;14.05;;
31782;SDS011;18351;47.560;9.708;2023-11-22T04:52:49;27.08;;;15.23;;
31782;SDS011;18351;47.560;9.708;2023-11-22T04:55:15;26.15;;;15.35;;
31782;SDS011;18351;47.560;9.708;2023-11-22T04:57:40;26.42;;;17.02;;
31782;SDS011;18351;47.560;9.708;2023-11-22T05:00:06;28.95;;;17.45;;
31782;SDS011;18351;47.560;9.708;2023-11-22T05:02:32;28.55;;;16.98;;
31782;SDS011;18351;47.560;9.708;2023-11-22T05:04:58;26.13;;;17.02;;
31782;SDS011;18351;47.560;9.708;2023-11-22T05:07:24;29.77;;;15.80;;
31782;SDS011;18351;47.560;9.708;2023-11-22T05:09:50;27.00;;;17.15;;
31782;SDS011;18351;47.560;9.708;2023-11-22T05:12:15;27.13;;;16.63;;
31782;SDS011;18351;47.560;9.708;2023-11-22T05:14:41;28.85;;;16.23;;
31782;SDS011;18351;47.560;9.708;2023-11-22T05:17:08;30.10;;;17.35;;
31782;SDS011;18351;47.560;9.708;2023-11-22T05:19:34;29.13;;;18.13;;
31782;SDS011;18351;47.560;9.708;2023-11-22T05:21:59;28.05;;;16.77;;
31782;SDS011;18351;47.560;9.708;2023-11-22T05:24:25;33.53;;;18.13;;
31782;SDS011;18351;47.560;9.708;2023-11-22T05:26:51;26.88;;;16.92;;
31782;SDS011;18351;47.560;9.708;2023-11-22T05:29:17;31.40;;;17.90;;
31782;SDS011;18351;47.560;9.708;2023-11-22T05:31:42;29.58;;;18.15;;
31782;SDS011;18351;47.560;9.708;2023-11-22T05:34:08;29.83;;;18.23;;
31782;SDS011;18351;47.560;9.708;2023-11-22T05:36:34;29.88;;;17.95;;
31782;SDS011;18351;47.560;9.708;2023-11-22T05:38:59;30.98;;;18.83;;
31782;SDS011;18351;47.560;9.708;2023-11-22T05:41:25;27.58;;;16.52;;
31782;SDS011;18351;47.560;9.708;2023-11-22T05:43:51;26.95;;;16.83;;
31782;SDS011;18351;47.560;9.708;2023-11-22T05:46:17;29.67;;;17.08;;
31782;SDS011;18351;47.560;9.708;2023-11-22T05:48:56;25.02;;;15.32;;
31782;SDS011;18351;47.560;9.708;2023-11-22T05:51:21;17.15;;;10.15;;
31782;SDS011;18351;47.560;9.708;2023-11-22T05:53:47;14.32;;;8.65;;
31782;SDS011;18351;47.560;9.708;2023-11-22T05:56:13;9.90;;;6.07;;
31782;SDS011;18351;47.560;9.708;2023-11-22T05:58:40;9.13;;;5.97;;
31782;SDS011;18351;47.560;9.708;2023-11-22T06:01:05;8.18;;;5.03;;
31782;SDS011;18351;47.560;9.708;2023-11-22T06:03:31;6.78;;;4.93;;
31782;SDS011;18351;47.560;9.708;2023-11-22T06:05:58;4.70;;;3.97;;
31782;SDS011;18351;47.560;9.708;2023-11-22T06:08:24;7.15;;;4.45;;
31782;SDS011;18351;47.560;9.708;2023-11-22T06:10:49;4.45;;;3.88;;
31782;SDS011;18351;47.560;9.708;2023-11-22T06:13:16;5.18;;;3.85;;
31782;SDS011;18351;47.560;9.708;2023-11-22T06:15:43;4.93;;;4.13;;
31782;SDS011;18351;47.560;9.708;2023-11-22T06:18:08;6.30;;;4.25;;
31782;SDS011;18351;47.560;9.708;2023-11-22T06:20:34;5.25;;;3.83;;
31782;SDS011;18351;47.560;9.708;2023-11-22T06:23:00;4.75;;;3.85;;
31782;SDS011;18351;47.560;9.708;2023-11-22T06:25:25;5.63;;;4.00;;
31782;SDS011;18351;47.560;9.708;2023-11-22T06:27:52;5.25;;;4.22;;
31782;SDS011;18351;47.560;9.708;2023-11-22T06:30:17;6.45;;;4.50;;
31782;SDS011;18351;47.560;9.708;2023-11-22T06:32:43;15.95;;;10.20;;
31782;SDS011;18351;47.560;9.708;2023-11-22T06:35:09;7.63;;;6.38;;
31782;SDS011;18351;47.560;9.708;2023-11-22T06:37:39;12.55;;;10.18;;
31782;SDS011;18351;47.560;9.708;2023-11-22T06:40:05;14.80;;;8.80;;
31782;SDS011;18351;47.560;9.708;2023-11-22T06:42:31;4.75;;;3.80;;
31782;SDS011;18351;47.560;9.708;2023-11-22T06:44:58;57.50;;;37.17;;
31782;SDS011;18351;47.560;9.708;2023-11-22T06:47:25;12.43;;;10.07;;
31782;SDS011;18351;47.560;9.708;2023-11-22T06:49:52;6.68;;;4.43;;
31782;SDS011;18351;47.560;9.708;2023-11-22T06:52:18;8.68;;;6.55;;
31782;SDS011;18351;47.560;9.708;2023-11-22T06:54:44;5.20;;;3.22;;
31782;SDS011;18351;47.560;9.708;2023-11-22T06:57:09;2.28;;;1.92;;
31782;SDS011;18351;47.560;9.708;2023-11-22T06:59:35;9.98;;;2.90;;
31782;SDS011;18351;47.560;9.708;2023-11-22T07:02:00;4.20;;;3.58;;
31782;SDS011;18351;47.560;9.708;2023-11-22T07:04:26;4.00;;;3.28;;
31782;SDS011;18351;47.560;9.708;2023-11-22T07:06:52;1.83;;;1.63;;
31782;SDS011;18351;47.560;9.708;2023-11-22T07:09:18;1.98;;;1.88;;
31782;SDS011;18351;47.560;9.708;2023-11-22T07:11:44;2.85;;;2.65;;
31782;SDS011;18351;47.560;9.708;2023-11-22T07:14:10;2.53;;;2.22;;
31782;SDS011;18351;47.560;9.708;2023-11-22T07:16:35;5.13;;;2.55;;
31782;SDS011;18351;47.560;9.708;2023-11-22T07:19:02;4.55;;;3.83;;
31782;SDS011;18351;47.560;9.708;2023-11-22T07:21:31;5.70;;;4.72;;
31782;SDS011;18351;47.560;9.708;2023-11-22T07:23:56;4.95;;;4.28;;
31782;SDS011;18351;47.560;9.708;2023-11-22T07:26:24;18.88;;;10.90;;
31782;SDS011;18351;47.560;9.708;2023-11-22T07:28:51;32.78;;;16.70;;
31782;SDS011;18351;47.560;9.708;2023-11-22T07:31:17;10.75;;;6.95;;
31782;SDS011;18351;47.560;9.708;2023-11-22T07:33:44;11.07;;;9.38;;
31782;SDS011;18351;47.560;9.708;2023-11-22T07:36:10;7.88;;;6.13;;
31782;SDS011;18351;47.560;9.708;2023-11-22T07:38:39;11.32;;;7.38;;
31782;SDS011;18351;47.560;9.708;2023-11-22T07:41:06;10.55;;;8.10;;
31782;SDS011;18351;47.560;9.708;2023-11-22T07:43:32;13.45;;;9.27;;
31782;SDS011;18351;47.560;9.708;2023-11-22T07:45:57;10.73;;;8.20;;
31782;SDS011;18351;47.560;9.708;2023-11-22T07:48:24;10.55;;;7.43;;
31782;SDS011;18351;47.560;9.708;2023-11-22T07:50:50;10.82;;;7.78;;
31782;SDS011;18351;47.560;9.708;2023-11-22T07:53:18;15.25;;;8.68;;
31782;SDS011;18351;47.560;9.708;2023-11-22T07:55:43;14.68;;;8.05;;
31782;SDS011;18351;47.560;9.708;2023-11-22T07:58:09;11.77;;;8.15;;
31782;SDS011;18351;47.560;9.708;2023-11-22T08:00:35;13.85;;;8.55;;
31782;SDS011;18351;47.560;9.708;2023-11-22T08:03:06;10.88;;;7.85;;
31782;SDS011;18351;47.560;9.708;2023-11-22T08:05:32;12.10;;;7.88;;
31782;SDS011;18351;47.560;9.708;2023-11-22T08:08:04;13.35;;;8.13;;
31782;SDS011;18351;47.560;9.708;2023-11-22T08:10:36;11.85;;;7.57;;
31782;SDS011;18351;47.560;9.708;2023-11-22T08:13:02;11.23;;;7.53;;
31782;SDS011;18351;47.560;9.708;2023-11-22T08:15:28;12.45;;;8.02;;
31782;SDS011;18351;47.560;9.708;2023-11-22T08:17:54;13.13;;;8.50;;
31782;SDS011;18351;47.560;9.708;2023-11-22T08:20:20;11.18;;;7.85;;
31782;SDS011;18351;47.560;9.708;2023-11-22T08:22:46;11.45;;;8.07;;
31782;SDS011;18351;47.560;9.708;2023-11-22T08:25:14;13.20;;;7.78;;
31782;SDS011;18351;47.560;9.708;2023-11-22T08:27:40;12.10;;;7.55;;
31782;SDS011;18351;47.560;9.708;2023-11-22T08:30:07;10.35;;;7.38;;
31782;SDS011;18351;47.560;9.708;2023-11-22T08:32:38;13.18;;;7.63;;
31782;SDS011;18351;47.560;9.708;2023-11-22T08:35:07;9.52;;;6.88;;
31782;SDS011;18351;47.560;9.708;2023-11-22T08:37:34;10.75;;;7.03;;
31782;SDS011;18351;47.560;9.708;2023-11-22T08:40:02;11.23;;;7.90;;
31782;SDS011;18351;47.560;9.708;2023-11-22T08:42:31;10.43;;;7.18;;
31782;SDS011;18351;47.560;9.708;2023-11-22T08:44:58;14.13;;;7.40;;
31782;SDS011;18351;47.560;9.708;2023-11-22T08:47:23;10.88;;;7.20;;
31782;SDS011;18351;47.560;9.708;2023-11-22T08:49:49;11.98;;;7.45;;
31782;SDS011;18351;47.560;9.708;2023-11-22T08:52:14;10.82;;;6.82;;
31782;SDS011;18351;47.560;9.708;2023-11-22T08:54:40;10.70;;;7.40;;
31782;SDS011;18351;47.560;9.708;2023-11-22T08:57:06;12.40;;;8.30;;
31782;SDS011;18351;47.560;9.708;2023-11-22T08:59:32;11.00;;;7.60;;
31782;SDS011;18351;47.560;9.708;2023-11-22T09:02:03;15.48;;;9.00;;
31782;SDS011;18351;47.560;9.708;2023-11-22T09:04:29;13.38;;;8.20;;
31782;SDS011;18351;47.560;9.708;2023-11-22T09:06:56;12.95;;;7.90;;
31782;SDS011;18351;47.560;9.708;2023-11-22T09:09:22;13.75;;;9.73;;
31782;SDS011;18351;47.560;9.708;2023-11-22T09:11:55;13.82;;;8.90;;
31782;SDS011;18351;47.560;9.708;2023-11-22T09:14:24;15.98;;;9.13;;
31782;SDS011;18351;47.560;9.708;2023-11-22T09:16:50;15.63;;;9.05;;
31782;SDS011;18351;47.560;9.708;2023-11-22T09:19:23;14.05;;;8.85;;
31782;SDS011;18351;47.560;9.708;2023-11-22T09:21:50;16.98;;;11.10;;
31782;SDS011;18351;47.560;9.708;2023-11-22T09:24:15;12.38;;;7.97;;
31782;SDS011;18351;47.560;9.708;2023-11-22T09:26:41;12.48;;;7.13;;
31782;SDS011;18351;47.560;9.708;2023-11-22T09:29:07;7.35;;;5.50;;
31782;SDS011;18351;47.560;9.708;2023-11-22T09:31:33;9.70;;;5.75;;
31782;SDS011;18351;47.560;9.708;2023-11-22T09:34:00;8.40;;;6.03;;
31782;SDS011;18351;47.560;9.708;2023-11-22T09:36:26;9.50;;;5.93;;
31782;SDS011;18351;47.560;9.708;2023-11-22T09:38:52;10.32;;;5.78;;
31782;SDS011;18351;47.560;9.708;2023-11-22T09:41:18;8.88;;;6.25;;
31782;SDS011;18351;47.560;9.708;2023-11-22T09:43:44;8.52;;;6.68;;
31782;SDS011;18351;47.560;9.708;2023-11-22T09:46:14;14.95;;;9.93;;
31782;SDS011;18351;47.560;9.708;2023-11-22T09:48:42;8.75;;;6.03;;
31782;SDS011;18351;47.560;9.708;2023-11-22T09:53:38;9.68;;;6.03;;
31782;SDS011;18351;47.560;9.708;2023-11-22T09:56:07;7.90;;;5.60;;
31782;SDS011;18351;47.560;9.708;2023-11-22T09:58:35;9.10;;;6.20;;
31782;SDS011;18351;47.560;9.708;2023-11-22T10:01:03;8.38;;;5.40;;
31782;SDS011;18351;47.560;9.708;2023-11-22T10:03:30;8.68;;;5.90;;
31782;SDS011;18351;47.560;9.708;2023-11-22T10:05:56;8.57;;;5.93;;
31782;SDS011;18351;47.560;9.708;2023-11-22T10:08:24;7.70;;;6.07;;
31782;SDS011;18351;47.560;9.708;2023-11-22T10:10:54;7.53;;;5.45;;
31782;SDS011;18351;47.560;9.708;2023-11-22T10:13:20;7.07;;;5.28;;
31782;SDS011;18351;47.560;9.708;2023-11-22T10:15:47;7.90;;;5.40;;
31782;SDS011;18351;47.560;9.708;2023-11-22T10:18:13;7.15;;;5.07;;
31782;SDS011;18351;47.560;9.708;2023-11-22T10:23:08;6.88;;;5.00;;
31782;SDS011;18351;47.560;9.708;2023-11-22T10:28:12;9.50;;;5.40;;
31782;SDS011;18351;47.560;9.708;2023-11-22T10:30:38;6.78;;;4.60;;
31782;SDS011;18351;47.560;9.708;2023-11-22T10:33:05;8.30;;;5.15;;
31782;SDS011;18351;47.560;9.708;2023-11-22T10:35:31;6.43;;;4.43;;
31782;SDS011;18351;47.560;9.708;2023-11-22T10:37:59;7.47;;;5.00;;
31782;SDS011;18351;47.560;9.708;2023-11-22T10:40:28;7.72;;;5.38;;
31782;SDS011;18351;47.560;9.708;2023-11-22T10:42:53;8.63;;;5.50;;
31782;SDS011;18351;47.560;9.708;2023-11-22T10:45:21;7.10;;;5.00;;
31782;SDS011;18351;47.560;9.708;2023-11-22T10:47:47;8.45;;;5.60;;
31782;SDS011;18351;47.560;9.708;2023-11-22T10:50:15;6.57;;;4.88;;
31782;SDS011;18351;47.560;9.708;2023-11-22T10:52:41;17.98;;;8.85;;
31782;SDS011;18351;47.560;9.708;2023-11-22T10:55:08;7.25;;;5.60;;
31782;SDS011;18351;47.560;9.708;2023-11-22T10:57:40;9.70;;;5.60;;
31782;SDS011;18351;47.560;9.708;2023-11-22T11:00:13;7.25;;;5.07;;
31782;SDS011;18351;47.560;9.708;2023-11-22T11:02:41;8.60;;;5.40;;
31782;SDS011;18351;47.560;9.708;2023-11-22T11:07:43;7.10;;;5.60;;
31782;SDS011;18351;47.560;9.708;2023-11-22T11:10:13;7.63;;;5.32;;
31782;SDS011;18351;47.560;9.708;2023-11-22T11:12:39;7.45;;;5.15;;
31782;SDS011;18351;47.560;9.708;2023-11-22T11:15:05;7.40;;;5.35;;
31782;SDS011;18351;47.560;9.708;2023-11-22T11:17:33;7.15;;;5.07;;
31782;SDS011;18351;47.560;9.708;2023-11-22T11:19:59;6.38;;;5.07;;
31782;SDS011;18351;47.560;9.708;2023-11-22T11:22:25;6.90;;;5.68;;
31782;SDS011;18351;47.560;9.708;2023-11-22T11:24:51;6.47;;;4.97;;
31782;SDS011;18351;47.560;9.708;2023-11-22T11:27:28;8.32;;;5.55;;
31782;SDS011;18351;47.560;9.708;2023-11-22T11:29:54;8.20;;;5.50;;
31782;SDS011;18351;47.560;9.708;2023-11-22T11:32:32;6.40;;;5.18;;
31782;SDS011;18351;47.560;9.708;2023-11-22T11:34:58;6.22;;;4.72;;
31782;SDS011;18351;47.560;9.708;2023-11-22T11:37:25;8.93;;;5.38;;
31782;SDS011;18351;47.560;9.708;2023-11-22T11:39:54;7.07;;;5.22;;
31782;SDS011;18351;47.560;9.708;2023-11-22T11:42:20;7.88;;;5.72;;
31782;SDS011;18351;47.560;9.708;2023-11-22T11:44:50;8.20;;;5.65;;
31782;SDS011;18351;47.560;9.708;2023-11-22T11:47:31;8.60;;;5.55;;
31782;SDS011;18351;47.560;9.708;2023-11-22T11:49:57;9.43;;;5.20;;
31782;SDS011;18351;47.560;9.708;2023-11-22T11:52:24;8.38;;;5.60;;
31782;SDS011;18351;47.560;9.708;2023-11-22T11:54:50;7.60;;;5.97;;
31782;SDS011;18351;47.560;9.708;2023-11-22T11:57:16;8.68;;;5.55;;
31782;SDS011;18351;47.560;9.708;2023-11-22T11:59:42;6.63;;;5.60;;
31782;SDS011;18351;47.560;9.708;2023-11-22T12:02:08;6.57;;;5.53;;
31782;SDS011;18351;47.560;9.708;2023-11-22T12:04:33;8.13;;;5.90;;
31782;SDS011;18351;47.560;9.708;2023-11-22T12:06:59;7.78;;;5.30;;
31782;SDS011;18351;47.560;9.708;2023-11-22T12:09:25;6.97;;;5.30;;
31782;SDS011;18351;47.560;9.708;2023-11-22T12:11:51;8.75;;;6.15;;
31782;SDS011;18351;47.560;9.708;2023-11-22T12:14:23;6.93;;;5.20;;
31782;SDS011;18351;47.560;9.708;2023-11-22T12:16:52;6.13;;;4.78;;
31782;SDS011;18351;47.560;9.708;2023-11-22T12:19:28;7.78;;;5.75;;
31782;SDS011;18351;47.560;9.708;2023-11-22T12:21:56;7.15;;;5.18;;
31782;SDS011;18351;47.560;9.708;2023-11-22T12:24:22;12.82;;;6.63;;
31782;SDS011;18351;47.560;9.708;2023-11-22T12:26:49;10.13;;;7.10;;
31782;SDS011;18351;47.560;9.708;2023-11-22T12:29:16;8.85;;;7.15;;
31782;SDS011;18351;47.560;9.708;2023-11-22T12:34:22;14.63;;;8.68;;
31782;SDS011;18351;47.560;9.708;2023-11-22T12:36:48;12.55;;;8.70;;
31782;SDS011;18351;47.560;9.708;2023-11-22T12:39:14;11.45;;;8.43;;
31782;SDS011;18351;47.560;9.708;2023-11-22T12:41:44;13.88;;;9.90;;
31782;SDS011;18351;47.560;9.708;2023-11-22T12:44:13;13.85;;;9.73;;
31782;SDS011;18351;47.560;9.708;2023-11-22T12:49:11;15.55;;;11.43;;
31782;SDS011;18351;47.560;9.708;2023-11-22T12:51:37;14.90;;;11.43;;
31782;SDS011;18351;47.560;9.708;2023-11-22T12:54:03;14.00;;;9.68;;
31782;SDS011;18351;47.560;9.708;2023-11-22T12:56:28;11.52;;;8.27;;
31782;SDS011;18351;47.560;9.708;2023-11-22T12:58:54;14.18;;;9.00;;
31782;SDS011;18351;47.560;9.708;2023-11-22T13:01:20;10.45;;;7.35;;
31782;SDS011;18351;47.560;9.708;2023-11-22T13:03:45;10.35;;;7.90;;
31782;SDS011;18351;47.560;9.708;2023-11-22T13:06:11;10.00;;;7.07;;
31782;SDS011;18351;47.560;9.708;2023-11-22T13:08:36;9.95;;;6.88;;
31782;SDS011;18351;47.560;9.708;2023-11-22T13:11:02;10.75;;;7.07;;
31782;SDS011;18351;47.560;9.708;2023-11-22T13:13:29;10.45;;;7.40;;
31782;SDS011;18351;47.560;9.708;2023-11-22T13:15:55;12.05;;;6.68;;
31782;SDS011;18351;47.560;9.708;2023-11-22T13:18:21;9.98;;;6.95;;
31782;SDS011;18351;47.560;9.708;2023-11-22T13:20:47;9.02;;;6.57;;
31782;SDS011;18351;47.560;9.708;2023-11-22T13:23:15;9.20;;;5.93;;
31782;SDS011;18351;47.560;9.708;2023-11-22T13:25:41;13.80;;;6.07;;
31782;SDS011;18351;47.560;9.708;2023-11-22T13:28:06;7.72;;;5.70;;
31782;SDS011;18351;47.560;9.708;2023-11-22T13:30:33;6.75;;;5.43;;
31782;SDS011;18351;47.560;9.708;2023-11-22T13:32:59;10.10;;;6.18;;
31782;SDS011;18351;47.560;9.708;2023-11-22T13:35:25;10.90;;;6.80;;
31782;SDS011;18351;47.560;9.708;2023-11-22T13:37:55;10.30;;;6.57;;
31782;SDS011;18351;47.560;9.708;2023-11-22T13:40:22;8.68;;;7.10;;
31782;SDS011;18351;47.560;9.708;2023-11-22T13:42:48;9.35;;;7.10;;
31782;SDS011;18351;47.560;9.708;2023-11-22T13:45:17;10.57;;;6.90;;
31782;SDS011;18351;47.560;9.708;2023-11-22T13:47:43;12.13;;;7.60;;
31782;SDS011;18351;47.560;9.708;2023-11-22T13:50:10;8.77;;;6.38;;
31782;SDS011;18351;47.560;9.708;2023-11-22T13:52:38;8.85;;;6.45;;
31782;SDS011;18351;47.560;9.708;2023-11-22T13:55:04;8.85;;;7.00;;
31782;SDS011;18351;47.560;9.708;2023-11-22T13:57:33;9.07;;;6.53;;
31782;SDS011;18351;47.560;9.708;2023-11-22T13:59:58;9.43;;;6.88;;
31782;SDS011;18351;47.560;9.708;2023-11-22T14:02:24;12.05;;;7.30;;
31782;SDS011;18351;47.560;9.708;2023-11-22T14:04:49;10.48;;;6.65;;
31782;SDS011;18351;47.560;9.708;2023-11-22T14:07:15;8.43;;;6.38;;
31782;SDS011;18351;47.560;9.708;2023-11-22T14:09:41;13.20;;;8.00;;
31782;SDS011;18351;47.560;9.708;2023-11-22T14:12:10;11.48;;;7.25;;
31782;SDS011;18351;47.560;9.708;2023-11-22T14:14:36;10.07;;;7.63;;
31782;SDS011;18351;47.560;9.708;2023-11-22T14:17:01;9.60;;;7.40;;
31782;SDS011;18351;47.560;9.708;2023-11-22T14:19:27;10.60;;;7.63;;
31782;SDS011;18351;47.560;9.708;2023-11-22T14:21:53;20.05;;;14.52;;
31782;SDS011;18351;47.560;9.708;2023-11-22T14:24:18;21.17;;;15.80;;
31782;SDS011;18351;47.560;9.708;2023-11-22T14:26:44;11.40;;;8.63;;
31782;SDS011;18351;47.560;9.708;2023-11-22T14:29:13;12.18;;;8.73;;
31782;SDS011;18351;47.560;9.708;2023-11-22T14:31:39;26.73;;;17.98;;
31782;SDS011;18351;47.560;9.708;2023-11-22T14:34:05;28.48;;;19.60;;
31782;SDS011;18351;47.560;9.708;2023-11-22T14:36:30;20.77;;;14.75;;
31782;SDS011;18351;47.560;9.708;2023-11-22T14:38:56;18.15;;;13.32;;
31782;SDS011;18351;47.560;9.708;2023-11-22T14:41:22;16.20;;;11.32;;
31782;SDS011;18351;47.560;9.708;2023-11-22T14:43:47;19.85;;;12.02;;
31782;SDS011;18351;47.560;9.708;2023-11-22T14:46:13;19.52;;;13.20;;